West Rushville, Ohio
Current Conditions -  °F | °C
As of 10:27 AM on Thursday 23 Oct 2014 (Local Time) from KLHQ Reporting Station
Haze Haze  
Wind Chill:   Ceiling: 600
Heat Index:   Visibility: 6mi
Dew Point:   Wind: 6mph
Humidity: 86%   Direction: 330°NNW
Pressure: 30.25"   Gusts: NA
Location:  39.76°N, 82.45°W
Report Text: KLHQ 231427Z AUTO 33005KT 6SM BR OVC006 08/06 A3025 RMK AO2 T00780056
Loading
Personal Weather Stations






























Interactive Weather Map
Tropical Storm Tracking
New forecast layout! Learn more

10-Day Weather Forecast

Advertisements
Track Severe Weather on mobile